Latest Weather Forecast - Sunday 9th September 2018 (6am)

Date: Sunday, 9th September 2018
Valid from: 6:00 am to 12:00 pm
Synopsis: A weak surface to low level trough will be affecting the island....
Forecast: :   Fair to partly cloudy with a few scattered showers at first. Some localized showers and isolated thunderstorms will develope over some sections of the island mainly during the afternoon
Weather Advisory/
Warning:
None
Winds: Generally from the E at 15 to 20 km/h.
Sea Conditions: Moderate in open water; swells 1.0 m to 1.5m
Marine
Advisory/
Warning:
None
Tides:09.09.2018

High: 5:14 am  5:06 pm  
Low:  11:03 am ****

Aviation WX

[Source: ADDS]
METAR
TVSA 222000Z 07013KT 030V110 9999 SCT020 27/20 Q1016 =
TVSA 221700Z 2218/2318 08015KT 9999 SCT018 BKN040 PROB30 TEMPO 2218/2223 08015G25KT SHRA BKN015 SCT038
TAF
TVSA 221700Z 2218/2318 08015KT 9999 SCT018 BKN040 PROB30 TEMPO 2218/2223 08015G25KT SHRA BKN015 SCT038 =
SR / SS: 10:23 / 22:12 UTC (Sunrise Sunset 2019-02-22)